Time;durP1;ratioP1;P1;durP2;ratioP2;P2;SDS_P1;SDS_P2;PMS_P1;PMS_P2;Temp;Humidity;BMP_temperature;BMP_pressure;BME280_temperature;BME280_humidity;BME280_pressure;Samples;Min_cycle;Max_cycle;Signal;HPM_P1;HPM_P2
2023/05/21 00:01:02;;;;;;;10.73;4.30;;;13.60;99.90;;;;;;5052451;28;20033;-76
2023/05/21 00:03:29;;;;;;;9.50;4.10;;;13.60;99.90;;;;;;5046972;28;20064;-76
2023/05/21 00:05:55;;;;;;;8.85;4.05;;;13.60;99.90;;;;;;5054638;28;20090;-76
2023/05/21 00:08:22;;;;;;;9.68;4.20;;;13.60;99.90;;;;;;5049697;28;20036;-76
2023/05/21 00:10:48;;;;;;;8.90;4.15;;;13.60;99.90;;;;;;5069035;28;20062;-76
2023/05/21 00:13:14;;;;;;;9.18;3.90;;;13.60;99.90;;;;;;5048876;28;20131;-76
2023/05/21 00:15:40;;;;;;;9.52;3.92;;;13.60;99.90;;;;;;5050436;28;20037;-76
2023/05/21 00:18:05;;;;;;;11.45;4.38;;;13.60;99.90;;;;;;5048610;28;20059;-76
2023/05/21 00:20:31;;;;;;;11.65;3.95;;;13.60;99.90;;;;;;5053535;28;20084;-76
2023/05/21 00:22:58;;;;;;;11.52;3.85;;;13.60;99.90;;;;;;5056327;28;20064;-76
2023/05/21 00:25:24;;;;;;;12.57;4.13;;;13.60;99.90;;;;;;5062790;28;20044;-76
2023/05/21 00:27:49;;;;;;;11.73;4.28;;;13.60;99.90;;;;;;5038153;28;20051;-76
2023/05/21 00:30:15;;;;;;;9.88;4.30;;;13.70;99.90;;;;;;5042823;28;20044;-76
2023/05/21 00:32:41;;;;;;;9.20;3.97;;;13.60;99.90;;;;;;5051714;28;21153;-76
2023/05/21 00:35:07;;;;;;;9.85;4.25;;;13.60;99.90;;;;;;5040710;28;20048;-76
2023/05/21 00:37:33;;;;;;;9.63;4.20;;;13.60;99.90;;;;;;5053044;28;20071;-76
2023/05/21 00:40:01;;;;;;;10.63;4.70;;;13.60;99.90;;;;;;5068951;28;20063;-76
2023/05/21 00:42:29;;;;;;;9.52;4.05;;;13.60;99.90;;;;;;5049247;28;20170;-76
2023/05/21 00:44:55;;;;;;;10.48;4.10;;;13.70;99.90;;;;;;5044042;28;20074;-76
2023/05/21 00:47:21;;;;;;;9.55;4.00;;;13.60;99.90;;;;;;5046691;28;20163;-76
2023/05/21 00:49:50;;;;;;;9.00;4.25;;;13.60;99.90;;;;;;5055329;28;20187;-76
2023/05/21 00:52:19;;;;;;;10.77;4.47;;;13.60;99.90;;;;;;5051636;28;20043;-76
2023/05/21 00:54:49;;;;;;;11.68;4.57;;;13.60;99.90;;;;;;5032197;28;20045;-76
2023/05/21 00:57:20;;;;;;;10.40;4.88;;;13.60;99.90;;;;;;5052459;28;20056;-76
2023/05/21 00:59:49;;;;;;;10.20;4.35;;;13.60;99.90;;;;;;5053581;28;20044;-76
2023/05/21 01:02:16;;;;;;;10.57;4.30;;;13.60;99.90;;;;;;5055207;28;20317;-76
2023/05/21 01:04:45;;;;;;;8.93;4.15;;;13.60;99.90;;;;;;5047262;28;20084;-76
2023/05/21 01:07:13;;;;;;;10.18;4.60;;;13.60;99.90;;;;;;5037428;28;20043;-76
2023/05/21 01:09:40;;;;;;;11.35;4.20;;;13.60;99.90;;;;;;5054432;28;20044;-76
2023/05/21 01:12:07;;;;;;;9.80;4.60;;;13.60;99.90;;;;;;5044159;28;20040;-76
2023/05/21 01:14:35;;;;;;;11.10;4.95;;;13.50;99.90;;;;;;5034465;28;20040;-76
2023/05/21 01:17:01;;;;;;;10.57;4.65;;;13.60;99.90;;;;;;5042621;28;20501;-76
2023/05/21 01:19:27;;;;;;;9.73;4.60;;;14.30;99.90;;;;;;5045037;28;20229;-76
2023/05/21 01:22:00;;;;;;;11.65;4.85;;;13.60;99.90;;;;;;5047113;28;20528;-76
2023/05/21 01:24:26;;;;;;;13.30;4.88;;;13.60;99.90;;;;;;5052723;28;20608;-76
2023/05/21 01:26:51;;;;;;;9.82;4.78;;;13.50;99.90;;;;;;5056501;28;20044;-76
2023/05/21 01:29:18;;;;;;;9.55;4.38;;;13.50;99.90;;;;;;5059739;28;20051;-76
2023/05/21 01:32:20;;;;;;;9.55;4.55;;;13.50;99.90;;;;;;5033669;28;20058;-76
2023/05/21 01:35:09;;;;;;;9.80;4.70;;;13.50;99.90;;;;;;5059971;28;20079;-76
2023/05/21 01:38:16;;;;;;;9.52;4.63;;;13.50;99.90;;;;;;5053223;28;20056;-76
2023/05/21 01:40:46;;;;;;;10.90;4.68;;;13.50;99.90;;;;;;5023263;28;20133;-76
2023/05/21 01:43:13;;;;;;;9.68;4.85;;;13.50;99.90;;;;;;5036764;28;20043;-76
2023/05/21 01:45:41;;;;;;;10.57;4.90;;;13.50;99.90;;;;;;5041927;28;20120;-76
2023/05/21 01:48:08;;;;;;;10.32;4.95;;;13.40;99.90;;;;;;5059800;28;20036;-76
2023/05/21 01:50:36;;;;;;;11.48;5.05;;;13.50;99.90;;;;;;5058908;28;20142;-76
2023/05/21 01:53:04;;;;;;;9.80;4.78;;;13.50;99.90;;;;;;5059284;28;20039;-76
2023/05/21 01:55:30;;;;;;;12.68;5.65;;;13.50;99.90;;;;;;5049717;28;20040;-76
2023/05/21 01:57:58;;;;;;;12.50;5.53;;;13.40;99.90;;;;;;5067561;28;21373;-76
2023/05/21 02:00:27;;;;;;;11.20;4.88;;;13.50;99.90;;;;;;5035763;28;20127;-76
2023/05/21 02:02:53;;;;;;;10.40;4.70;;;13.40;99.90;;;;;;5038584;28;20080;-76
2023/05/21 02:05:18;;;;;;;11.57;4.97;;;13.30;99.90;;;;;;5052220;28;20539;-76
2023/05/21 02:07:45;;;;;;;11.82;5.32;;;13.40;99.90;;;;;;5049153;28;20068;-76
2023/05/21 02:10:11;;;;;;;11.13;4.85;;;13.30;99.90;;;;;;5052699;28;20042;-76
2023/05/21 02:12:37;;;;;;;11.52;5.43;;;13.40;99.90;;;;;;5051068;28;20101;-76
2023/05/21 02:15:03;;;;;;;10.27;5.30;;;13.30;99.90;;;;;;5055990;28;20047;-76
2023/05/21 02:17:32;;;;;;;12.98;5.85;;;13.20;99.90;;;;;;5054133;28;21102;-76
2023/05/21 02:20:10;;;;;;;12.02;5.40;;;13.20;99.90;;;;;;5067623;28;20048;-76
2023/05/21 02:22:40;;;;;;;11.85;5.20;;;13.20;99.90;;;;;;5027734;28;20822;-76
2023/05/21 02:25:07;;;;;;;12.60;5.10;;;13.10;99.90;;;;;;5038810;28;20044;-76
2023/05/21 02:27:35;;;;;;;10.40;4.75;;;13.10;99.90;;;;;;5032744;28;20028;-76
2023/05/21 02:30:06;;;;;;;11.93;5.43;;;13.00;99.90;;;;;;5054446;28;20044;-76
2023/05/21 02:32:33;;;;;;;11.80;5.38;;;13.00;99.90;;;;;;5049358;28;20460;-76
2023/05/21 02:35:00;;;;;;;12.10;5.20;;;12.90;99.90;;;;;;5050680;28;20044;-76
2023/05/21 02:37:27;;;;;;;10.68;5.20;;;12.90;99.90;;;;;;5051465;28;20051;-76
2023/05/21 02:39:55;;;;;;;12.88;5.40;;;12.80;99.90;;;;;;5041648;28;20040;-76
2023/05/21 02:42:22;;;;;;;11.48;5.70;;;12.80;99.90;;;;;;5048678;28;20318;-76
2023/05/21 02:44:49;;;;;;;11.68;5.65;;;12.80;99.90;;;;;;5040133;28;20054;-76
2023/05/21 02:47:16;;;;;;;11.50;5.22;;;12.70;99.90;;;;;;5050967;28;20039;-76
2023/05/21 02:49:41;;;;;;;10.85;5.43;;;12.70;99.90;;;;;;5053295;28;20067;-76
2023/05/21 02:52:07;;;;;;;10.02;5.15;;;12.70;99.90;;;;;;5051229;28;20043;-76
2023/05/21 02:54:33;;;;;;;11.32;5.03;;;12.60;99.90;;;;;;5052251;28;20040;-76
2023/05/21 02:56:59;;;;;;;11.57;5.75;;;12.60;99.90;;;;;;5049500;28;20041;-76
2023/05/21 02:59:24;;;;;;;11.63;5.18;;;12.70;99.90;;;;;;5062053;28;20669;-76
2023/05/21 03:01:50;;;;;;;11.38;5.63;;;12.60;99.90;;;;;;5041923;28;20128;-76
2023/05/21 03:04:17;;;;;;;11.98;5.47;;;12.60;99.90;;;;;;5035934;28;20052;-76
2023/05/21 03:06:43;;;;;;;11.63;5.53;;;12.60;99.90;;;;;;5030886;28;20036;-76
2023/05/21 03:09:09;;;;;;;13.70;5.72;;;12.60;99.90;;;;;;5049625;28;20044;-76
2023/05/21 03:11:35;;;;;;;14.85;6.20;;;12.60;99.90;;;;;;5053224;28;20306;-76
2023/05/21 03:14:01;;;;;;;11.70;5.75;;;12.60;99.90;;;;;;5067703;28;20156;-76
2023/05/21 03:16:27;;;;;;;12.20;5.60;;;12.60;99.90;;;;;;5037719;28;20119;-76
2023/05/21 03:18:53;;;;;;;12.65;5.80;;;12.70;99.90;;;;;;5037274;28;20036;-76
2023/05/21 03:21:21;;;;;;;12.82;5.50;;;12.60;99.90;;;;;;5055397;28;20047;-76
2023/05/21 03:23:48;;;;;;;14.02;5.88;;;12.70;99.90;;;;;;5037149;28;20102;-76
2023/05/21 03:26:14;;;;;;;15.38;6.03;;;12.60;99.90;;;;;;5054173;28;20036;-76
2023/05/21 03:28:40;;;;;;;12.43;5.80;;;12.60;99.90;;;;;;5049065;28;20043;-76
2023/05/21 03:31:06;;;;;;;15.68;6.47;;;12.60;99.90;;;;;;5045611;28;20040;-76
2023/05/21 03:33:31;;;;;;;12.68;5.80;;;12.60;99.90;;;;;;5038814;28;21746;-76
2023/05/21 03:35:57;;;;;;;11.50;5.97;;;12.60;99.90;;;;;;5052698;28;20055;-76
2023/05/21 03:38:23;;;;;;;14.65;5.80;;;12.60;99.90;;;;;;5043938;28;20040;-76
2023/05/21 03:40:48;;;;;;;12.88;5.80;;;12.60;99.90;;;;;;5035830;28;20497;-76
2023/05/21 03:43:14;;;;;;;13.02;5.95;;;12.70;99.90;;;;;;5056995;28;20028;-76
2023/05/21 03:45:40;;;;;;;14.98;6.63;;;12.60;99.90;;;;;;5035741;28;20706;-76
2023/05/21 03:48:06;;;;;;;11.70;6.03;;;12.70;99.90;;;;;;5061223;28;20299;-76
2023/05/21 03:50:32;;;;;;;12.63;5.38;;;12.70;99.90;;;;;;5035540;28;20185;-76
2023/05/21 03:52:57;;;;;;;11.45;5.18;;;12.70;99.90;;;;;;5055841;28;20051;-76
2023/05/21 03:55:23;;;;;;;12.55;5.95;;;12.70;99.90;;;;;;5055689;28;20048;-76
2023/05/21 03:57:49;;;;;;;12.82;6.03;;;;;;;;;;5064443;28;20131;-76
2023/05/21 04:00:15;;;;;;;11.75;5.38;;;12.70;99.90;;;;;;5059414;28;20063;-76
2023/05/21 04:02:41;;;;;;;13.27;5.53;;;12.70;99.90;;;;;;5055274;28;20196;-76
2023/05/21 04:05:07;;;;;;;11.95;5.53;;;12.70;99.90;;;;;;5025099;28;20047;-76
2023/05/21 04:07:32;;;;;;;14.52;5.93;;;12.80;99.90;;;;;;5060985;28;20075;-76
2023/05/21 04:09:58;;;;;;;11.52;5.53;;;12.80;99.90;;;;;;5062532;28;20089;-76
2023/05/21 04:12:24;;;;;;;13.20;5.43;;;12.80;99.90;;;;;;5034014;28;20032;-76
2023/05/21 04:14:50;;;;;;;12.70;5.43;;;12.80;99.90;;;;;;5057333;28;20059;-76
2023/05/21 04:17:18;;;;;;;10.82;5.13;;;12.80;99.90;;;;;;5041976;28;20043;-76
2023/05/21 04:19:43;;;;;;;12.25;5.50;;;12.80;99.90;;;;;;5046085;28;20143;-76
2023/05/21 04:22:10;;;;;;;11.77;5.03;;;12.80;99.90;;;;;;5060394;28;20766;-76
2023/05/21 04:24:36;;;;;;;12.57;5.35;;;12.80;99.90;;;;;;5044654;28;20112;-76
2023/05/21 04:27:03;;;;;;;11.95;5.30;;;12.80;99.90;;;;;;5059551;28;20477;-76
2023/05/21 04:29:30;;;;;;;14.65;5.13;;;12.80;99.90;;;;;;5037155;28;20040;-76
2023/05/21 04:31:55;;;;;;;12.07;5.05;;;12.80;99.90;;;;;;5066597;28;20513;-76
2023/05/21 04:34:21;;;;;;;11.90;5.30;;;12.80;99.90;;;;;;5063161;28;20067;-76
2023/05/21 04:36:47;;;;;;;13.90;4.95;;;12.80;99.90;;;;;;5048542;28;20167;-76
2023/05/21 04:39:13;;;;;;;21.23;5.55;;;12.90;99.90;;;;;;5060838;28;20612;-76
2023/05/21 04:41:39;;;;;;;13.30;5.13;;;12.80;99.90;;;;;;5062308;28;20039;-76
2023/05/21 04:44:08;;;;;;;11.85;5.07;;;12.80;99.90;;;;;;5065694;28;20031;-76
2023/05/21 04:46:35;;;;;;;11.80;4.60;;;12.80;99.90;;;;;;5060546;28;20066;-76
2023/05/21 04:49:03;;;;;;;11.85;5.00;;;12.90;99.90;;;;;;5065679;28;20052;-76
2023/05/21 04:51:30;;;;;;;13.02;5.57;;;12.90;99.90;;;;;;5048343;28;20398;-76
2023/05/21 04:53:57;;;;;;;10.48;4.50;;;12.90;99.90;;;;;;5061397;28;20445;-76
2023/05/21 04:56:26;;;;;;;11.75;5.13;;;12.90;99.90;;;;;;5058094;28;20124;-76
2023/05/21 04:59:10;;;;;;;13.18;5.15;;;13.00;99.90;;;;;;5049927;28;20046;-76
2023/05/21 05:01:37;;;;;;;11.73;4.82;;;13.00;99.90;;;;;;5062713;28;20075;-76
2023/05/21 05:04:03;;;;;;;12.65;4.72;;;13.00;99.90;;;;;;5066711;28;20536;-76
2023/05/21 05:06:29;;;;;;;11.40;4.90;;;13.10;99.90;;;;;;5040439;28;20044;-76
2023/05/21 05:08:55;;;;;;;12.80;4.95;;;13.20;99.90;;;;;;5062513;28;20076;-76
2023/05/21 05:11:21;;;;;;;13.30;5.10;;;13.30;99.90;;;;;;5064201;28;20633;-76
2023/05/21 05:13:47;;;;;;;14.80;4.65;;;13.40;99.90;;;;;;5049540;28;20047;-76
2023/05/21 05:16:18;;;;;;;10.20;4.38;;;13.50;99.90;;;;;;5059624;28;20106;-76
2023/05/21 05:18:43;;;;;;;14.40;4.70;;;13.50;99.90;;;;;;5064629;28;20120;-76
2023/05/21 05:21:09;;;;;;;12.73;4.72;;;13.60;99.90;;;;;;5045292;28;20493;-76
2023/05/21 05:23:35;;;;;;;12.65;4.65;;;13.60;99.90;;;;;;5063769;28;20098;-76
2023/05/21 05:26:00;;;;;;;12.90;4.50;;;13.60;99.90;;;;;;5061515;28;20036;-76
2023/05/21 05:28:26;;;;;;;12.05;4.20;;;13.70;99.90;;;;;;5029625;28;20110;-76
2023/05/21 05:30:52;;;;;;;13.70;4.38;;;13.70;99.90;;;;;;5062092;28;20481;-77
2023/05/21 05:33:18;;;;;;;12.20;4.32;;;13.70;99.90;;;;;;5073103;28;20066;-77
2023/05/21 05:35:43;;;;;;;13.23;4.90;;;13.80;99.90;;;;;;5061902;28;20126;-77
2023/05/21 05:38:09;;;;;;;11.85;4.65;;;13.80;99.90;;;;;;5030833;28;20048;-77
2023/05/21 05:40:35;;;;;;;13.55;4.70;;;13.90;99.90;;;;;;5057795;28;20463;-77
2023/05/21 05:43:01;;;;;;;11.77;4.40;;;14.00;99.90;;;;;;5067273;28;20039;-78
2023/05/21 05:45:26;;;;;;;13.45;4.40;;;14.00;99.90;;;;;;5059486;28;20032;-78
2023/05/21 05:47:52;;;;;;;8.93;4.03;;;14.10;99.90;;;;;;5061304;28;20070;-77
2023/05/21 05:50:18;;;;;;;12.35;4.45;;;14.00;99.90;;;;;;5045620;28;20039;-77
2023/05/21 05:52:43;;;;;;;10.32;4.05;;;14.00;99.90;;;;;;5062196;28;20040;-77
2023/05/21 05:55:10;;;;;;;10.40;4.07;;;14.00;99.90;;;;;;5044529;28;20032;-78
2023/05/21 05:57:36;;;;;;;12.95;4.18;;;14.00;99.90;;;;;;5062119;28;20193;-77
2023/05/21 06:00:03;;;;;;;10.55;3.90;;;14.00;99.90;;;;;;5064176;28;20518;-77
2023/05/21 06:02:29;;;;;;;11.80;4.15;;;14.00;99.90;;;;;;5048133;28;20044;-77
2023/05/21 06:04:55;;;;;;;12.52;3.80;;;14.00;99.90;;;;;;5033744;28;20070;-77
2023/05/21 06:07:21;;;;;;;12.52;4.05;;;14.00;99.90;;;;;;5059978;28;20040;-77
2023/05/21 06:09:46;;;;;;;9.80;4.10;;;14.00;99.90;;;;;;5064797;28;20040;-77
2023/05/21 06:12:14;;;;;;;10.80;4.07;;;14.00;99.90;;;;;;5062878;28;20043;-77
2023/05/21 06:14:41;;;;;;;10.45;4.22;;;14.00;99.90;;;;;;5061899;28;20097;-77
2023/05/21 06:17:07;;;;;;;11.65;4.28;;;14.00;99.90;;;;;;5046932;28;20036;-77
2023/05/21 06:19:33;;;;;;;14.25;4.13;;;14.00;99.90;;;;;;5061320;28;20055;-77
2023/05/21 06:21:58;;;;;;;12.20;4.03;;;14.00;99.90;;;;;;5047253;28;20109;-77
2023/05/21 06:24:25;;;;;;;10.65;4.18;;;14.10;99.90;;;;;;5062059;28;20068;-77
2023/05/21 06:26:50;;;;;;;11.10;4.18;;;14.20;99.90;;;;;;5065364;28;20040;-77
2023/05/21 06:29:16;;;;;;;13.10;4.18;;;14.30;99.90;;;;;;5061879;28;20043;-77
2023/05/21 06:31:42;;;;;;;12.20;4.43;;;14.30;99.90;;;;;;5065643;28;20036;-77
2023/05/21 06:34:10;;;;;;;13.23;4.15;;;14.40;99.90;;;;;;5059273;28;20052;-77
2023/05/21 06:36:36;;;;;;;13.20;4.57;;;14.40;99.90;;;;;;5059406;28;20652;-77
2023/05/21 06:39:02;;;;;;;10.73;4.32;;;14.40;99.90;;;;;;5066161;28;20049;-76
2023/05/21 06:41:28;;;;;;;11.45;4.43;;;14.40;99.90;;;;;;5063241;28;20043;-77
2023/05/21 06:43:53;;;;;;;10.57;4.45;;;14.40;99.90;;;;;;5058176;28;20036;-78
2023/05/21 06:46:19;;;;;;;12.13;4.28;;;14.40;99.90;;;;;;5042078;28;20040;-77
2023/05/21 06:48:45;;;;;;;10.98;4.10;;;14.50;99.90;;;;;;5058467;28;20129;-77
2023/05/21 06:51:11;;;;;;;11.93;4.65;;;14.50;99.90;;;;;;5061703;28;20040;-77
2023/05/21 06:53:37;;;;;;;11.05;4.45;;;14.60;99.90;;;;;;5052642;28;20059;-76
2023/05/21 06:56:03;;;;;;;10.68;4.30;;;14.70;99.90;;;;;;5051747;28;20536;-76
2023/05/21 06:58:30;;;;;;;11.52;4.68;;;14.70;99.90;;;;;;5058098;28;20093;-77
2023/05/21 07:01:00;;;;;;;10.30;4.60;;;14.80;99.90;;;;;;5059441;28;20061;-77
2023/05/21 07:03:26;;;;;;;12.82;4.25;;;14.80;99.90;;;;;;5074354;28;20052;-77
2023/05/21 07:05:52;;;;;;;12.27;4.32;;;14.80;99.90;;;;;;5058089;28;20055;-76
2023/05/21 07:08:21;;;;;;;11.65;4.20;;;14.80;99.90;;;;;;5057785;28;20049;-77
2023/05/21 07:10:47;;;;;;;12.38;4.25;;;14.90;99.90;;;;;;5049480;28;20051;-76
2023/05/21 07:13:14;;;;;;;12.15;4.45;;;14.90;99.90;;;;;;5057037;28;20131;-76
2023/05/21 07:15:48;;;;;;;13.07;4.00;;;14.90;99.90;;;;;;5055752;28;21023;-77
2023/05/21 07:18:15;;;;;;;10.80;4.50;;;15.10;99.90;;;;;;5035691;28;20061;-76
2023/05/21 07:20:41;;;;;;;15.68;4.70;;;15.00;99.90;;;;;;5034322;28;20054;-77
2023/05/21 07:23:07;;;;;;;9.48;3.92;;;15.00;99.90;;;;;;5052825;28;20410;-76
2023/05/21 07:25:33;;;;;;;12.40;4.72;;;15.00;99.90;;;;;;5059306;28;20039;-76
2023/05/21 07:27:58;;;;;;;12.77;4.50;;;15.00;99.90;;;;;;5061874;28;20885;-76
2023/05/21 07:30:24;;;;;;;14.05;4.50;;;15.10;99.90;;;;;;5034070;28;20037;-76
2023/05/21 07:32:50;;;;;;;10.18;4.00;;;15.10;99.90;;;;;;5058312;28;20051;-76
2023/05/21 07:35:16;;;;;;;12.48;4.50;;;15.20;99.90;;;;;;5060295;28;20036;-76
2023/05/21 07:37:41;;;;;;;10.73;4.07;;;15.20;99.90;;;;;;5060033;28;20033;-76
2023/05/21 07:40:08;;;;;;;10.38;4.20;;;15.40;99.90;;;;;;5043461;28;20079;-76
2023/05/21 07:42:34;;;;;;;11.23;4.57;;;15.40;99.90;;;;;;5072077;28;20032;-76
2023/05/21 07:45:01;;;;;;;11.77;3.90;;;15.40;99.90;;;;;;5059804;28;21377;-76
2023/05/21 07:47:26;;;;;;;13.38;4.00;;;15.50;99.90;;;;;;5037574;28;20114;-76
2023/05/21 07:49:52;;;;;;;12.35;4.10;;;15.50;99.90;;;;;;5032516;28;20525;-76
2023/05/21 07:52:18;;;;;;;12.35;4.38;;;15.60;99.90;;;;;;5057362;28;20149;-76
2023/05/21 07:54:43;;;;;;;10.45;4.13;;;15.60;99.90;;;;;;5042663;28;20041;-77
2023/05/21 07:57:09;;;;;;;12.15;4.30;;;15.60;99.90;;;;;;5035718;28;20043;-76
2023/05/21 07:59:35;;;;;;;11.00;4.40;;;15.70;99.90;;;;;;5050077;28;20063;-77
2023/05/21 08:02:01;;;;;;;11.85;4.65;;;15.70;99.90;;;;;;5041743;28;20044;-78
2023/05/21 08:04:26;;;;;;;10.93;4.07;;;15.70;99.90;;;;;;5056609;28;20263;-77
2023/05/21 08:06:52;;;;;;;10.52;4.30;;;15.80;99.90;;;;;;5038531;28;20144;-77
2023/05/21 08:09:18;;;;;;;12.52;4.25;;;15.80;99.90;;;;;;5029612;28;20529;-76
2023/05/21 08:11:45;;;;;;;9.32;3.92;;;15.90;99.90;;;;;;5040160;28;20474;-76
2023/05/21 08:14:10;;;;;;;10.57;4.38;;;16.00;99.90;;;;;;5057916;28;20401;-76
2023/05/21 08:16:36;;;;;;;11.38;4.30;;;16.10;99.90;;;;;;5024339;28;20048;-76
2023/05/21 08:19:02;;;;;;;10.43;4.30;;;16.20;99.90;;;;;;5058726;28;20033;-76
2023/05/21 08:21:28;;;;;;;11.63;4.32;;;16.20;99.90;;;;;;5054658;28;20261;-77
2023/05/21 08:23:54;;;;;;;13.98;4.68;;;16.20;99.90;;;;;;5041261;28;20132;-76
2023/05/21 08:26:20;;;;;;;12.32;4.30;;;16.20;99.90;;;;;;5046959;28;20490;-76
2023/05/21 08:28:46;;;;;;;12.20;4.50;;;16.40;99.90;;;;;;5044209;28;20064;-76
2023/05/21 08:31:12;;;;;;;11.90;4.38;;;16.40;99.90;;;;;;5042645;28;20041;-76
2023/05/21 08:33:38;;;;;;;9.98;3.80;;;16.40;99.90;;;;;;5046143;28;20045;-77
2023/05/21 08:36:05;;;;;;;10.52;4.30;;;16.40;99.90;;;;;;5026230;28;20431;-76
2023/05/21 08:38:31;;;;;;;11.50;4.15;;;16.40;99.90;;;;;;5027163;28;20168;-76
2023/05/21 08:40:58;;;;;;;11.25;4.05;;;16.60;99.90;;;;;;5023620;28;20498;-77
2023/05/21 08:43:27;;;;;;;11.57;4.30;;;16.60;99.90;;;;;;5041366;28;20041;-76
2023/05/21 08:45:53;;;;;;;10.23;4.40;;;16.70;99.90;;;;;;5022422;28;20128;-77
2023/05/21 08:48:22;;;;;;;11.20;4.15;;;16.70;99.90;;;;;;5015983;28;20042;-76
2023/05/21 08:50:50;;;;;;;12.07;4.40;;;16.70;99.90;;;;;;5026473;28;20059;-76
2023/05/21 08:53:16;;;;;;;12.80;4.07;;;16.70;99.90;;;;;;5043602;28;20040;-78
2023/05/21 08:55:42;;;;;;;10.02;4.22;;;16.70;99.90;;;;;;5027090;28;20037;-76
2023/05/21 08:58:09;;;;;;;10.40;3.92;;;16.80;99.90;;;;;;5026432;28;20501;-77
2023/05/21 09:00:35;;;;;;;12.63;4.07;;;16.90;99.90;;;;;;5010192;28;20413;-76
2023/05/21 09:03:06;;;;;;;10.75;4.20;;;16.90;99.90;;;;;;5024727;28;20040;-77
2023/05/21 09:05:33;;;;;;;10.52;4.47;;;17.10;99.90;;;;;;5043343;28;20147;-76
2023/05/21 09:08:06;;;;;;;11.18;4.07;;;17.20;99.90;;;;;;5043326;28;20044;-77
2023/05/21 09:10:37;;;;;;;10.50;4.10;;;17.30;99.90;;;;;;5059345;28;20068;-76
2023/05/21 09:13:03;;;;;;;11.80;4.32;;;17.40;99.90;;;;;;5025731;28;20060;-77
2023/05/21 09:15:29;;;;;;;11.65;4.20;;;17.40;99.90;;;;;;5024824;28;20055;-77
2023/05/21 09:17:56;;;;;;;8.98;4.00;;;17.30;99.90;;;;;;5027459;28;20040;-78
2023/05/21 09:20:26;;;;;;;10.55;4.38;;;17.40;99.90;;;;;;5025317;28;20041;-78
2023/05/21 09:22:52;;;;;;;9.98;4.30;;;17.40;99.90;;;;;;5025081;28;20044;-77
2023/05/21 09:25:28;;;;;;;12.00;4.28;;;17.30;99.90;;;;;;5043275;28;20037;-76
2023/05/21 09:27:55;;;;;;;12.15;4.53;;;17.30;99.90;;;;;;4995567;28;20124;-77
2023/05/21 09:30:21;;;;;;;11.43;3.90;;;17.30;99.90;;;;;;5042850;28;20037;-77
2023/05/21 09:32:55;;;;;;;10.05;4.22;;;17.30;99.90;;;;;;5044800;28;20044;-76
2023/05/21 09:35:20;;;;;;;10.90;3.95;;;17.40;99.90;;;;;;5026576;28;20785;-76
2023/05/21 09:37:48;;;;;;;9.45;4.13;;;17.50;99.90;;;;;;5044148;28;20040;-76
2023/05/21 09:40:18;;;;;;;9.88;4.00;;;17.60;99.90;;;;;;5039972;28;20037;-77
2023/05/21 09:42:50;;;;;;;11.60;4.10;;;17.60;99.90;;;;;;5044624;28;20037;-78
2023/05/21 09:45:24;;;;;;;10.30;4.05;;;17.70;99.90;;;;;;5022899;28;20187;-76
2023/05/21 09:47:51;;;;;;;10.13;3.53;;;17.80;99.90;;;;;;5017414;28;20762;-76
2023/05/21 09:50:22;;;;;;;12.38;3.85;;;17.80;99.90;;;;;;5036522;28;20075;-78
2023/05/21 09:52:51;;;;;;;11.32;4.05;;;17.80;99.90;;;;;;5034799;28;20037;-76
2023/05/21 09:55:18;;;;;;;8.85;3.75;;;17.80;99.90;;;;;;5041352;28;20049;-76
2023/05/21 09:57:45;;;;;;;9.35;3.40;;;17.90;99.90;;;;;;5041499;28;20533;-76
2023/05/21 10:00:26;;;;;;;9.35;3.45;;;17.90;99.90;;;;;;5040738;28;20067;-80
2023/05/21 10:03:03;;;;;;;9.95;3.30;;;17.20;99.90;;;;;;5043379;28;20051;-79
2023/05/21 10:05:30;;;;;;;9.45;3.38;;;17.90;99.90;;;;;;5026723;28;20048;-79
2023/05/21 10:08:02;;;;;;;11.20;3.22;;;17.90;99.90;;;;;;5031058;28;20495;-79
2023/05/21 10:10:29;;;;;;;10.45;3.90;;;18.00;99.90;;;;;;5042935;28;20055;-79
2023/05/21 10:13:03;;;;;;;9.73;3.83;;;18.00;99.90;;;;;;5042742;28;20128;-80
2023/05/21 10:15:36;;;;;;;11.73;4.30;;;18.10;99.90;;;;;;5026607;28;20466;-79
2023/05/21 10:18:03;;;;;;;11.35;4.13;;;18.10;99.90;;;;;;5042293;28;20032;-80
2023/05/21 10:20:29;;;;;;;11.63;4.15;;;18.20;99.90;;;;;;5044135;28;20510;-80
2023/05/21 10:22:57;;;;;;;9.70;4.45;;;18.20;99.90;;;;;;5039059;28;20602;-79
2023/05/21 10:25:24;;;;;;;9.63;4.18;;;18.30;99.90;;;;;;5023591;28;20483;-77
2023/05/21 10:27:52;;;;;;;9.82;3.90;;;18.50;99.90;;;;;;5043865;28;20115;-79
2023/05/21 10:30:20;;;;;;;12.50;4.43;;;18.60;99.90;;;;;;5022227;28;20042;-80
2023/05/21 10:32:47;;;;;;;10.65;4.00;;;18.70;99.90;;;;;;5037763;28;20542;-79
2023/05/21 10:35:15;;;;;;;9.75;4.10;;;18.70;99.90;;;;;;5039085;28;20045;-76
2023/05/21 10:37:43;;;;;;;11.93;4.38;;;18.80;99.90;;;;;;5039756;28;20171;-75
2023/05/21 10:40:09;;;;;;;10.80;4.60;;;18.70;99.90;;;;;;5039196;28;20510;-81
2023/05/21 10:42:36;;;;;;;14.20;4.50;;;18.60;99.90;;;;;;5025671;28;20509;-79
2023/05/21 10:45:31;;;;;;;11.30;4.18;;;18.60;99.90;;;;;;5041211;28;20043;-77
2023/05/21 10:48:18;;;;;;;11.18;4.47;;;18.70;99.90;;;;;;5037776;28;20511;-76
2023/05/21 10:50:52;;;;;;;13.18;4.43;;;18.70;99.90;;;;;;5037605;28;20124;-81
2023/05/21 10:53:43;;;;;;;11.85;4.25;;;18.70;99.90;;;;;;5036851;28;20063;-80
2023/05/21 10:56:35;;;;;;;10.85;4.43;;;18.60;99.90;;;;;;5020214;28;20415;-80
2023/05/21 10:59:17;;;;;;;12.20;4.28;;;18.50;99.90;;;;;;5041086;28;20498;-79
2023/05/21 11:01:44;;;;;;;11.95;5.30;;;18.50;99.90;;;;;;5037268;28;20251;-80
2023/05/21 11:04:11;;;;;;;12.38;4.25;;;18.50;99.90;;;;;;5025989;28;20045;-81
2023/05/21 11:06:36;;;;;;;16.02;4.47;;;18.60;99.90;;;;;;5043158;28;20044;-81
2023/05/21 11:09:13;;;;;;;12.07;4.95;;;18.70;99.90;;;;;;5025134;28;20032;-76
2023/05/21 11:11:49;;;;;;;11.50;5.00;;;18.70;99.90;;;;;;5037294;28;20076;-76
2023/05/21 11:14:24;;;;;;;16.15;5.85;;;18.70;99.90;;;;;;5036935;28;20691;-76
2023/05/21 11:16:50;;;;;;;12.07;5.10;;;18.60;99.90;;;;;;5039205;28;20052;-76
2023/05/21 11:19:16;;;;;;;10.68;4.88;;;18.70;99.90;;;;;;5024022;28;20033;-77
2023/05/21 11:21:42;;;;;;;14.70;5.40;;;18.80;99.90;;;;;;5022268;28;20094;-76
2023/05/21 11:24:09;;;;;;;14.07;5.63;;;18.80;99.90;;;;;;5024859;28;20037;-76
2023/05/21 11:26:47;;;;;;;11.20;5.28;;;18.80;99.90;;;;;;5039209;28;20104;-78
2023/05/21 11:29:13;;;;;;;12.60;6.20;;;18.90;99.90;;;;;;5038765;28;20525;-77
2023/05/21 11:31:57;;;;;;;12.90;5.53;;;18.80;99.90;;;;;;5021297;28;20052;-78
2023/05/21 11:34:33;;;;;;;15.68;6.28;;;18.70;99.90;;;;;;5040984;28;20128;-78
2023/05/21 11:39:43;;;;;;;13.00;5.70;;;18.90;99.90;;;;;;5057050;28;20037;-80
2023/05/21 11:42:09;;;;;;;13.23;6.22;;;19.00;99.90;;;;;;5040492;28;20187;-79
2023/05/21 11:44:40;;;;;;;12.98;6.55;;;19.10;99.90;;;;;;5024401;28;21649;-79
2023/05/21 11:47:08;;;;;;;14.48;6.75;;;19.20;99.90;;;;;;5051215;28;20072;-81
2023/05/21 11:49:35;;;;;;;13.20;6.55;;;19.30;99.90;;;;;;5040288;28;20033;-76
2023/05/21 11:52:02;;;;;;;13.75;6.05;;;19.40;99.90;;;;;;5042201;28;20390;-75
2023/05/21 11:54:32;;;;;;;14.73;6.45;;;19.50;99.90;;;;;;5036031;28;20052;-75
2023/05/21 11:57:00;;;;;;;16.85;6.65;;;19.60;99.90;;;;;;5036175;28;20033;-75
2023/05/21 11:59:26;;;;;;;16.60;7.57;;;19.50;99.90;;;;;;5001945;28;20861;-76
2023/05/21 12:01:52;;;;;;;14.38;6.72;;;19.50;99.90;;;;;;5041117;28;20049;-75
2023/05/21 12:04:18;;;;;;;14.57;7.18;;;19.50;99.90;;;;;;5042882;28;20036;-76
2023/05/21 12:06:44;;;;;;;15.32;6.65;;;19.50;99.90;;;;;;5042190;28;20040;-76
2023/05/21 12:09:11;;;;;;;12.80;6.25;;;19.60;99.90;;;;;;5042879;28;20056;-78
2023/05/21 12:11:40;;;;;;;12.02;5.43;;;19.80;99.90;;;;;;5024670;28;20052;-79
2023/05/21 12:14:10;;;;;;;13.55;5.95;;;20.00;99.90;;;;;;5012373;28;20529;-78
2023/05/21 12:16:37;;;;;;;13.18;6.03;;;20.10;99.90;;;;;;5043848;28;20045;-78
2023/05/21 12:19:04;;;;;;;12.27;6.35;;;20.20;99.90;;;;;;5042528;28;20116;-80
2023/05/21 12:21:30;;;;;;;13.82;6.00;;;20.30;99.90;;;;;;5045099;28;20029;-76
2023/05/21 12:23:56;;;;;;;12.50;5.68;;;20.20;99.90;;;;;;5027791;28;20495;-77
2023/05/21 12:26:26;;;;;;;14.18;6.38;;;20.20;99.90;;;;;;5027257;28;20144;-85
2023/05/21 12:28:55;;;;;;;15.57;6.53;;;20.30;99.90;;;;;;5028603;28;20037;-82
2023/05/21 12:31:22;;;;;;;12.75;5.97;;;20.10;99.90;;;;;;5029284;28;20360;-77
2023/05/21 12:33:49;;;;;;;13.38;6.18;;;20.10;99.90;;;;;;5041969;28;20036;-77
2023/05/21 12:36:33;;;;;;;14.10;6.00;;;20.10;99.90;;;;;;5035138;28;20431;-76
2023/05/21 12:38:58;;;;;;;14.15;5.85;;;20.00;99.90;;;;;;5037443;28;20048;-77
2023/05/21 12:41:25;;;;;;;13.27;5.45;;;20.00;99.90;;;;;;5025459;28;20033;-77
2023/05/21 12:43:51;;;;;;;14.02;5.80;;;20.10;99.90;;;;;;5045657;28;20411;-77